CHIUDI BANNER

Seguici su twitter Seguici su facebook
LIVE Streaming HD
Get Adobe Flash player
Animazione Masse d'Aria e Nubi
satellite e T nubi
DNA SURF SHOP
Consigli pubblicitari di Google
Dati meteo stazione (refresh automatico ogni minuto)
Latina VENTO: VELOCITÀ   PIOGGIA: QTA GIORNO TEMPERATURA: ATTUALE
SPOT: Latina lido
(Hotel Tirreno) Posizione su Googlemap: Latitudine 41.41 Longitudine 12.84
RAFFICA MASSIMA: QTA MENSILE: MASSIMA:
VELOCITÀ MEDIA: QTA ANNUALE: MINIMA:
DIREZIONE: UMIDITÀ: WIND CHILL:
TIPO: DEW POINT:
BEAUFORT: PRESSIONE:
I nostri partner
Latina nelle ultime ore
Applica filtri in visualizzazione Intervallo delle letture nelle ultime

Ora Direzione Vento Velocita' Vento Media Vento Raffica Max. Temperatura Wind Chill Pioggia Pressione
15:07:34214 °(SW)5.6 Kts3.8 Kts33.4 Kts23 °C21 °C6.4 mm1006.7 Hpa
15:02:41234 °(SW)3.8 Kts4.7 Kts33.4 Kts22.9 °C20.5 °C6.4 mm1006.7 Hpa
14:57:32232 °(SW)2.1 Kts4.7 Kts33.4 Kts22.6 °C20.1 °C6.4 mm1006.7 Hpa
14:52:41244 °(WSW)5.6 Kts3.8 Kts33.4 Kts22.4 °C20.2 °C6.4 mm1006.9 Hpa
14:47:32240 °(WSW)3.8 Kts3 Kts33.4 Kts22.1 °C20.2 °C6.4 mm1006.9 Hpa
14:42:41246 °(WSW)1.2 Kts2.1 Kts33.4 Kts21.7 °C20.4 °C6.4 mm1006.8 Hpa
14:37:33253 °(WSW)3 Kts3 Kts33.4 Kts21.7 °C19.7 °C6.4 mm1006.7 Hpa
14:32:33223 °(SW)2.1 Kts3 Kts33.4 Kts21.2 °C19.4 °C6.4 mm1006.7 Hpa
14:27:40232 °(SW)1.2 Kts3.8 Kts33.4 Kts21.1 °C18.7 °C6.4 mm1006.7 Hpa
14:22:32277 °(W)3 Kts4.7 Kts33.4 Kts20.9 °C18 °C6.4 mm1006.8 Hpa
14:17:39288 °(WNW)5.6 Kts4.7 Kts33.4 Kts21.4 °C18.6 °C6.4 mm1006.7 Hpa
14:12:42281 °(W)4.7 Kts4.7 Kts33.4 Kts21.7 °C19 °C6 mm1006.7 Hpa
14:07:40270 °(W)4.7 Kts6.4 Kts33.4 Kts22 °C18.9 °C6 mm1006.5 Hpa
14:02:33244 °(WSW)8.2 Kts7.3 Kts33.4 Kts22.4 °C19.3 °C6 mm1006.5 Hpa
13:57:19229 °(SW)5.6 Kts8.2 Kts33.4 Kts22.7 °C19.4 °C6 mm1006.4 Hpa
13:52:40235 °(SW)9 Kts7.3 Kts33.4 Kts22.9 °C19.9 °C6 mm1006.4 Hpa
13:47:30234 °(SW)7.3 Kts8.2 Kts33.4 Kts23.2 °C20 °C6 mm1006.4 Hpa
13:42:43217 °(SW)6.4 Kts9.9 Kts33.4 Kts23 °C19.4 °C6 mm1006.2 Hpa
13:37:37214 °(SW)9.9 Kts13.4 Kts33.4 Kts22.7 °C18.2 °C6 mm1006.4 Hpa
13:32:33209 °(SSW)14.2 Kts12.5 Kts33.4 Kts23.1 °C19 °C6 mm1006.4 Hpa
13:27:39226 °(SW)12.5 Kts9.9 Kts33.4 Kts23.2 °C19.9 °C6 mm1006.4 Hpa
13:22:40224 °(SW)6.4 Kts8.2 Kts33.4 Kts23 °C19.7 °C6 mm1006.4 Hpa
13:17:38211 °(SSW)9.9 Kts8.2 Kts33.4 Kts22.8 °C19.5 °C6 mm1006.5 Hpa
13:12:39228 °(SW)7.3 Kts7.3 Kts33.4 Kts22.7 °C19.6 °C6 mm1006.5 Hpa